Time;durP1;ratioP1;P1;durP2;ratioP2;P2;SDS_P1;SDS_P2;PMS_P1;PMS_P2;Temp;Humidity;BMP_temperature;BMP_pressure;BME280_temperature;BME280_humidity;BME280_pressure;Samples;Min_cycle;Max_cycle;Signal;HPM_P1;HPM_P2
2023/10/16 00:02:13;;;;;;;4.68;1.65;;;;;;;12.98;55.71;98846.78;5093854;28;20024;-49
2023/10/16 00:04:46;;;;;;;7.20;2.10;;;;;;;12.97;55.16;98838.03;5093824;28;20020;-49
2023/10/16 00:07:15;;;;;;;4.75;1.42;;;;;;;12.94;54.80;98843.75;5092419;28;20086;-49
2023/10/16 00:09:41;;;;;;;3.92;1.35;;;;;;;12.84;55.06;98839.94;5094007;28;20436;-49
2023/10/16 00:12:08;;;;;;;4.15;1.60;;;;;;;12.77;54.75;98827.63;5092636;28;20385;-48
2023/10/16 00:14:35;;;;;;;3.97;1.75;;;;;;;12.70;54.70;98842.66;5092303;28;20410;-48
2023/10/16 00:17:07;;;;;;;2.83;1.10;;;;;;;12.58;54.88;98844.34;5075585;28;20051;-48
2023/10/16 00:19:37;;;;;;;6.63;1.27;;;;;;;12.43;55.31;98847.22;5093383;28;20040;-48
2023/10/16 00:22:18;;;;;;;4.43;1.23;;;;;;;12.27;55.72;98842.41;5093385;28;20027;-49
2023/10/16 00:24:47;;;;;;;2.50;1.23;;;;;;;12.17;55.56;98838.41;5092219;28;20040;-49
2023/10/16 00:27:16;;;;;;;6.63;1.60;;;;;;;12.12;55.82;98835.56;5093586;28;20452;-48
2023/10/16 00:29:43;;;;;;;5.03;1.20;;;;;;;12.06;56.06;98848.75;5091941;28;20024;-48
2023/10/16 00:32:11;;;;;;;3.35;1.20;;;;;;;11.98;55.75;98844.53;5091905;28;20340;-48
2023/10/16 00:34:37;;;;;;;6.32;1.83;;;;;;;11.83;56.08;98852.63;5093237;28;20021;-48
2023/10/16 00:37:07;;;;;;;2.58;1.17;;;;;;;11.65;56.43;98844.50;5093394;28;20023;-49
2023/10/16 00:39:34;;;;;;;3.53;1.00;;;;;;;11.47;56.69;98851.22;5093398;28;20039;-48
2023/10/16 00:41:59;;;;;;;3.00;1.30;;;;;;;11.31;56.92;98854.22;5093105;28;20020;-48
2023/10/16 00:44:35;;;;;;;7.70;1.33;;;;;;;11.16;57.65;98846.50;5091715;28;20051;-49
2023/10/16 00:47:01;;;;;;;;;;;;;;;11.16;57.82;98849.94;5091506;28;20123;-48
2023/10/16 00:49:28;;;;;;;2.92;1.45;;;;;;;11.14;57.87;98843.28;5092863;28;19912;-48
2023/10/16 00:51:54;;;;;;;5.03;1.35;;;;;;;11.16;57.76;98849.94;5092885;28;20595;-48
2023/10/16 00:54:29;;;;;;;3.53;1.00;;;;;;;11.06;57.68;98852.16;5092831;28;20016;-48
2023/10/16 00:57:07;;;;;;;4.50;1.40;;;;;;;10.96;58.20;98844.66;5092915;28;20042;-48
2023/10/16 00:59:35;;;;;;;4.85;1.65;;;;;;;11.05;58.50;98849.75;5092856;28;20505;-48
2023/10/16 01:02:13;;;;;;;3.70;1.45;;;;;;;11.08;58.43;98844.09;5092874;28;20032;-48
2023/10/16 01:04:40;;;;;;;2.25;1.25;;;;;;;11.07;58.36;98843.28;5092674;28;20512;-48
2023/10/16 01:07:07;;;;;;;7.47;1.35;;;;;;;10.99;58.36;98843.47;5091424;28;20020;-48
2023/10/16 01:09:36;;;;;;;4.15;1.33;;;;;;;10.87;58.09;98847.69;5091257;28;20020;-48
2023/10/16 01:12:06;;;;;;;2.92;1.52;;;;;;;10.86;58.82;98838.16;5092499;28;20198;-48
2023/10/16 01:14:36;;;;;;;5.50;1.15;;;;;;;10.90;58.54;98828.88;5092515;28;20030;-48
2023/10/16 01:17:08;;;;;;;6.63;1.45;;;;;;;10.72;58.71;98843.38;5091113;28;20069;-48
2023/10/16 01:19:36;;;;;;;6.55;1.25;;;;;;;10.66;58.92;98831.03;5092144;28;20525;-48
2023/10/16 01:22:03;;;;;;;2.67;1.48;;;;;;;10.63;59.06;98820.94;5092380;28;20551;-48
2023/10/16 01:24:29;;;;;;;4.15;1.80;;;;;;;10.71;58.96;98828.66;5092411;28;20048;-48
2023/10/16 01:27:06;;;;;;;3.17;1.48;;;;;;;10.77;59.27;98827.06;5092248;28;20032;-48
2023/10/16 01:29:33;;;;;;;4.13;1.30;;;;;;;10.71;58.77;98823.41;5092243;28;20073;-48
2023/10/16 01:31:59;;;;;;;4.72;2.70;;;;;;;10.57;59.41;98827.78;5092246;28;20032;-48
2023/10/16 01:34:25;;;;;;;4.05;1.50;;;;;;;10.47;59.49;98834.41;5090867;28;20108;-48
2023/10/16 01:36:51;;;;;;;3.42;1.40;;;;;;;10.33;59.79;98826.47;5092149;28;20032;-48
2023/10/16 01:42:03;;;;;;;3.47;1.30;;;;;;;10.53;60.11;98826.56;5092357;28;20038;-48
2023/10/16 01:44:29;;;;;;;4.57;1.60;;;;;;;10.55;60.06;98824.56;5092085;28;20114;-48
2023/10/16 01:46:55;;;;;;;3.80;1.38;;;;;;;10.51;59.82;98825.16;5091985;28;20091;-48
2023/10/16 01:49:24;;;;;;;4.18;1.50;;;;;;;10.42;60.25;98826.31;5090610;28;20024;-48
2023/10/16 01:51:55;;;;;;;6.20;3.60;;;;;;;10.24;60.37;98829.44;5091967;28;20020;-48
2023/10/16 01:54:22;;;;;;;5.90;1.95;;;;;;;10.23;61.27;98819.97;5092007;28;20028;-48
2023/10/16 01:56:51;;;;;;;11.85;1.80;;;;;;;10.55;61.80;98808.00;5091929;28;20028;-48
2023/10/16 01:59:21;;;;;;;6.32;1.63;;;;;;;10.90;61.48;98813.94;5090401;28;20074;-48
2023/10/16 02:01:47;;;;;;;2.63;1.30;;;;;;;11.23;60.54;98810.56;5092127;28;20027;-48
2023/10/16 02:04:12;;;;;;;2.90;1.45;;;;;;;11.47;60.43;98805.69;5092088;28;20458;-48
2023/10/16 02:06:39;;;;;;;3.55;1.90;;;;;;;11.67;59.57;98796.00;5090541;28;20118;-48
2023/10/16 02:09:12;;;;;;;3.30;1.65;;;;;;;11.86;59.43;98804.06;5091951;28;20085;-48
2023/10/16 02:11:40;;;;;;;3.53;1.35;;;;;;;11.88;58.81;98799.41;5091730;28;20043;-48
2023/10/16 02:14:06;;;;;;;4.30;1.48;;;;;;;11.76;58.72;98793.94;5091755;28;20020;-48
2023/10/16 02:16:32;;;;;;;5.85;1.83;;;;;;;11.69;58.86;98798.41;5090376;28;20085;-48
2023/10/16 02:18:57;;;;;;;2.67;1.42;;;;;;;11.71;58.47;98796.38;5091537;28;20040;-48
2023/10/16 02:21:24;;;;;;;4.90;3.08;;;;;;;11.66;58.88;98785.69;5091662;28;20028;-48
2023/10/16 02:23:49;;;;;;;3.75;1.98;;;;;;;11.70;58.65;98787.69;5091654;28;20127;-48
2023/10/16 02:26:19;;;;;;;5.38;1.30;;;;;;;11.73;58.52;98789.91;5091616;28;20103;-48
2023/10/16 02:28:54;;;;;;;4.00;1.48;;;;;;;11.65;58.17;98786.69;5091553;28;20035;-48
2023/10/16 02:31:20;;;;;;;6.47;1.63;;;;;;;11.65;58.87;98777.00;5091544;28;20059;-48
2023/10/16 02:33:53;;;;;;;4.28;1.77;;;;;;;11.75;58.48;98771.28;5091513;28;20028;-48
2023/10/16 02:36:23;;;;;;;5.32;1.77;;;;;;;11.65;58.32;98771.75;5091577;28;20053;-48
2023/10/16 02:38:56;;;;;;;4.25;1.40;;;;;;;11.57;57.77;98774.59;5091855;28;20020;-48
2023/10/16 02:41:22;;;;;;;4.95;1.90;;;;;;;11.34;58.90;98772.38;5090233;28;20036;-48
2023/10/16 02:43:49;;;;;;;4.30;1.48;;;;;;;11.47;58.92;98769.75;5090131;28;20111;-48
2023/10/16 02:46:19;;;;;;;5.40;1.67;;;;;;;11.38;58.74;98769.13;5091369;28;20032;-48
2023/10/16 02:48:45;;;;;;;6.80;1.60;;;;;;;11.39;58.84;98765.50;5090389;28;20031;-48
2023/10/16 02:51:11;;;;;;;5.45;1.70;;;;;;;11.54;58.89;98769.72;5090025;28;20020;-48
2023/10/16 02:53:41;;;;;;;10.10;1.63;;;;;;;11.57;58.23;98770.13;5091644;28;20406;-49
2023/10/16 02:58:54;;;;;;;4.20;1.90;;;;;;;11.58;57.95;98766.47;5091390;28;20078;-48
2023/10/16 03:01:21;;;;;;;7.20;1.70;;;;;;;11.46;58.16;98764.69;5089992;28;20040;-48
2023/10/16 03:03:48;;;;;;;8.05;1.60;;;;;;;11.46;58.29;98768.09;5091290;28;20023;-48
2023/10/16 03:06:14;;;;;;;5.07;1.55;;;;;;;11.34;58.30;98765.28;5091514;28;20081;-48
2023/10/16 03:08:45;;;;;;;2.90;1.58;;;;;;;11.19;58.79;98764.69;5091233;28;20058;-48
2023/10/16 03:11:13;;;;;;;2.97;1.35;;;;;;;11.11;58.86;98764.91;5092906;28;20076;-48
2023/10/16 03:13:39;;;;;;;4.18;1.60;;;;;;;10.97;58.99;98764.88;5094914;28;20024;-48
2023/10/16 03:16:16;;;;;;;4.70;1.90;;;;;;;10.86;59.21;98759.41;5094731;28;20024;-48
2023/10/16 03:18:48;;;;;;;3.25;1.42;;;;;;;10.94;59.64;98757.38;5094560;28;20052;-48
2023/10/16 03:23:47;;;;;;;3.40;1.98;;;;;;;11.19;59.57;98754.19;5094612;28;20122;-48
2023/10/16 03:28:45;;;;;;;6.43;1.80;;;;;;;10.99;59.45;98752.34;5094622;28;20028;-49
2023/10/16 03:31:12;;;;;;;3.80;1.60;;;;;;;11.07;59.18;98751.34;5094539;28;20021;-48
2023/10/16 03:33:38;;;;;;;4.38;1.77;;;;;;;11.06;59.24;98752.34;5094695;28;20028;-48
2023/10/16 03:36:05;;;;;;;3.85;1.98;;;;;;;11.03;59.31;98757.19;5094450;28;20028;-48
2023/10/16 03:38:37;;;;;;;8.77;1.80;;;;;;;10.99;59.58;98752.34;5094379;28;20028;-48
2023/10/16 03:41:30;;;;;;;2.45;0.95;;;;;;;10.82;59.13;98756.38;5094364;28;20111;-47
2023/10/16 03:44:14;;;;;;;3.35;1.30;;;;;;;10.48;59.44;98749.44;5093942;28;20039;-48
2023/10/16 03:46:44;;;;;;;5.32;1.83;;;;;;;10.15;59.81;98753.53;5094205;28;20112;-48
2023/10/16 03:49:13;;;;;;;14.40;1.92;;;;;;;9.93;60.39;98758.06;5094094;28;20114;-48
2023/10/16 03:51:39;;;;;;;5.68;1.80;;;;;;;9.92;61.01;98760.88;5094361;28;20020;-48
2023/10/16 03:54:05;;;;;;;10.30;1.73;;;;;;;9.99;61.22;98764.38;5092739;28;20039;-48
2023/10/16 03:56:31;;;;;;;4.35;1.85;;;;;;;10.00;61.33;98758.94;5093986;28;20641;-48
2023/10/16 03:58:57;;;;;;;3.78;1.30;;;;;;;10.12;61.50;98758.34;5092686;28;20493;-48
2023/10/16 04:01:29;;;;;;;5.25;2.13;;;;;;;10.18;61.26;98752.31;5093844;28;20513;-48
2023/10/16 04:03:58;;;;;;;6.85;1.33;;;;;;;10.32;61.08;98746.19;5093881;28;20054;-48
2023/10/16 04:06:26;;;;;;;9.82;1.70;;;;;;;10.26;60.71;98736.44;5093712;28;20032;-48
2023/10/16 04:08:55;;;;;;;5.85;1.38;;;;;;;10.12;60.73;98742.63;5093731;28;20034;-48
2023/10/16 04:11:25;;;;;;;8.18;1.50;;;;;;;9.95;61.02;98737.72;5093697;28;20017;-48
2023/10/16 04:13:55;;;;;;;4.20;1.17;;;;;;;10.16;62.10;98733.34;5092396;28;20067;-49
2023/10/16 04:19:35;;;;;;;7.18;1.88;;;;;;;10.63;60.99;98751.91;5093368;28;20054;-48
2023/10/16 04:22:08;;;;;;;5.28;1.70;;;;;;;10.49;60.28;98738.75;5092560;28;20035;-48
2023/10/16 04:24:40;;;;;;;4.72;1.52;;;;;;;10.51;60.97;98734.13;5093562;28;20027;-49
2023/10/16 04:29:45;;;;;;;7.47;1.88;;;;;;;11.01;60.39;98733.78;5093308;28;20032;-48
2023/10/16 04:35:03;;;;;;;7.15;1.70;;;;;;;11.43;58.12;98736.16;5093321;28;20089;-48
2023/10/16 04:37:29;;;;;;;5.35;1.50;;;;;;;11.20;57.19;98721.63;5092163;28;20531;-48
2023/10/16 04:53:08;;;;;;;5.13;2.38;;;;;;;10.79;59.96;98709.53;5093286;28;20363;-48
2023/10/16 05:03:35;;;;;;;8.82;2.03;;;;;;;10.79;59.06;98701.66;5091655;28;20020;-48
2023/10/16 05:06:15;;;;;;;17.60;2.88;;;;;;;10.65;58.60;98700.03;5092689;28;20074;-48
2023/10/16 05:13:16;;;;;;;10.77;2.53;;;;;;;10.41;59.12;98685.66;5092820;28;20051;-48
2023/10/16 05:15:20;;;;;;;18.58;2.40;;;;;;;10.18;59.51;98690.22;5092519;28;20070;-48
2023/10/16 05:19:53;;;;;;;22.48;3.50;;;;;;;10.11;59.63;98688.56;5092319;28;20125;-48
2023/10/16 06:14:38;;;;;;;12.48;3.92;;;;;;;10.28;60.08;98707.38;5091800;28;20074;-48
2023/10/16 06:17:13;;;;;;;18.35;3.83;;;;;;;10.14;60.04;98707.34;5090386;28;20035;-48
2023/10/16 06:19:43;;;;;;;18.50;3.00;;;;;;;10.02;59.95;98703.69;5091573;28;20052;-48
2023/10/16 06:22:09;;;;;;;12.07;3.40;;;;;;;9.94;60.52;98711.69;5091650;28;20032;-48
2023/10/16 06:24:35;;;;;;;21.10;4.57;;;;;;;9.90;61.13;98708.69;5091566;28;20489;-48
2023/10/16 06:27:10;;;;;;;18.25;3.85;;;;;;;9.95;61.50;98697.59;5091639;28;20032;-48
2023/10/16 06:29:40;;;;;;;11.77;2.83;;;;;;;10.12;61.42;98703.28;5091543;28;20081;-48
2023/10/16 06:32:07;;;;;;;19.75;3.72;;;;;;;10.22;61.27;98711.59;5091786;28;20751;-48
2023/10/16 06:34:37;;;;;;;22.25;3.75;;;;;;;10.39;61.06;98714.72;5091878;28;20024;-48
2023/10/16 06:37:06;;;;;;;20.05;4.85;;;;;;;10.53;60.77;98710.31;5091454;28;20547;-48
2023/10/16 06:39:35;;;;;;;25.40;3.10;;;;;;;10.76;60.64;98704.66;5091580;28;20024;-48
2023/10/16 06:42:03;;;;;;;16.08;3.67;;;;;;;11.05;60.35;98713.97;5091700;28;20017;-48
2023/10/16 06:44:28;;;;;;;19.98;3.95;;;;;;;11.34;59.09;98701.41;5091474;28;20020;-48
2023/10/16 06:46:59;;;;;;;31.58;6.85;;;;;;;11.72;58.51;98709.41;5094242;28;20077;-48
2023/10/16 06:49:35;;;;;;;38.20;7.82;;;;;;;12.27;57.22;98708.22;5095166;28;20028;-48
2023/10/16 06:52:12;;;;;;;22.63;4.75;;;;;;;12.72;55.95;98714.22;5095215;28;20184;-48
2023/10/16 06:54:39;;;;;;;34.17;5.53;;;;;;;13.08;54.41;98706.63;5095213;28;20417;-48
2023/10/16 06:57:12;;;;;;;14.60;3.30;;;;;;;13.35;53.44;98713.31;5094988;28;20035;-48
2023/10/16 06:59:50;;;;;;;17.45;3.78;;;;;;;13.66;52.15;98708.16;5095129;28;20042;-48
2023/10/16 07:02:19;;;;;;;35.03;4.45;;;;;;;13.87;51.34;98707.72;5095063;28;20040;-49
2023/10/16 07:04:46;;;;;;;15.07;2.80;;;;;;;13.94;51.02;98702.34;5094989;28;20038;-48
2023/10/16 07:07:15;;;;;;;16.02;4.60;;;;;;;14.05;50.45;98708.72;5094847;28;20024;-48
2023/10/16 07:09:47;;;;;;;19.42;3.35;;;;;;;13.90;50.37;98706.47;5094760;28;20058;-49
2023/10/16 07:12:16;;;;;;;37.67;4.68;;;;;;;14.25;49.60;98700.56;5094837;28;20035;-49
2023/10/16 07:14:55;;;;;;;22.30;4.10;;;;;;;14.45;48.17;98716.13;5094841;28;20039;-48
2023/10/16 07:17:24;;;;;;;16.20;2.65;;;;;;;14.55;48.00;98714.56;5094822;28;20020;-48
2023/10/16 07:19:51;;;;;;;18.83;4.03;;;;;;;15.02;47.54;98710.44;5094496;28;20051;-48
2023/10/16 07:22:17;;;;;;;17.52;3.90;;;;;;;15.12;46.67;98719.38;5094678;28;20125;-48
2023/10/16 07:24:43;;;;;;;17.58;3.70;;;;;;;15.12;46.49;98718.59;5093289;28;20122;-48
2023/10/16 07:27:14;;;;;;;16.85;4.25;;;;;;;15.22;46.31;98713.53;5094557;28;20031;-48
2023/10/16 07:29:43;;;;;;;38.97;8.00;;;;;;;15.53;45.81;98706.28;5094512;28;20027;-48
2023/10/16 07:32:09;;;;;;;43.15;6.70;;;;;;;15.80;45.00;98708.47;5094488;28;20552;-49
2023/10/16 07:34:36;;;;;;;47.38;8.88;;;;;;;16.04;44.33;98710.00;5093230;28;20052;-48
2023/10/16 07:37:07;;;;;;;38.97;13.75;;;;;;;16.63;43.67;98711.59;5094625;28;20099;-49
2023/10/16 07:39:34;;;;;;;10.35;2.38;;;;;;;17.19;42.03;98706.44;5094399;28;20028;-48
2023/10/16 07:42:02;;;;;;;11.63;2.00;;;;;;;17.35;41.02;98711.69;5092953;28;20048;-48
2023/10/16 07:44:28;;;;;;;24.17;3.55;;;;;;;17.40;41.14;98716.25;5094541;28;20032;-48
2023/10/16 07:46:54;;;;;;;19.23;3.25;;;;;;;17.85;40.12;98714.47;5092995;28;20078;-48
2023/10/16 07:49:25;;;;;;;9.68;2.47;;;;;;;18.31;38.88;98709.69;5092732;28;20022;-46
2023/10/16 07:51:55;;;;;;;18.90;3.47;;;;;;;19.28;38.50;98702.56;5093034;28;20039;-46
2023/10/16 07:54:21;;;;;;;16.50;2.60;;;;;;;20.47;35.66;98693.97;5092905;28;20052;-46
2023/10/16 07:56:50;;;;;;;27.15;4.93;;;;;;;21.07;34.69;98690.81;5093707;28;20104;-46
2023/10/16 07:59:19;;;;;;;14.13;2.30;;;;;;;21.87;33.39;98682.88;5093988;28;20047;-46
2023/10/16 08:01:48;;;;;;;4.97;1.83;;;;;;;21.67;32.27;98681.09;5092580;28;20036;-46
2023/10/16 08:06:52;;;;;;;17.27;4.07;;;;;;;19.49;34.95;98689.38;5093954;28;20043;-46
2023/10/16 08:11:56;;;;;;;8.98;3.13;;;;;;;18.06;37.64;98700.41;5093769;28;20043;-46
2023/10/16 08:14:26;;;;;;;13.73;2.10;;;;;;;17.92;38.05;98696.53;5094036;28;20051;-46
2023/10/16 08:16:58;;;;;;;19.42;2.30;;;;;;;18.06;38.04;98699.59;5092360;28;20036;-46
2023/10/16 08:19:31;;;;;;;10.35;2.50;;;;;;;18.22;37.98;98706.69;5093538;28;20399;-46
2023/10/16 08:22:02;;;;;;;34.83;3.15;;;;;;;18.15;38.06;98703.44;5093591;28;20112;-46
2023/10/16 08:24:29;;;;;;;16.42;1.85;;;;;;;17.95;37.70;98714.63;5093621;28;20495;-46
2023/10/16 08:27:08;;;;;;;18.63;2.67;;;;;;;17.48;39.03;98718.50;5093537;28;20016;-46
2023/10/16 08:29:51;;;;;;;9.85;2.50;;;;;;;17.34;39.65;98712.75;5093432;28;20028;-46
2023/10/16 08:35:08;;;;;;;9.40;2.45;;;;;;;17.20;39.83;98714.13;5093382;28;20401;-46
2023/10/16 08:37:34;;;;;;;10.65;2.60;;;;;;;16.85;41.62;98711.72;5093296;28;20547;-46
2023/10/16 08:40:00;;;;;;;8.18;1.83;;;;;;;16.62;41.74;98715.28;5093226;28;20027;-46
2023/10/16 08:42:26;;;;;;;8.02;1.98;;;;;;;16.75;42.04;98710.47;5093156;28;20047;-46
2023/10/16 08:44:58;;;;;;;21.48;3.30;;;;;;;16.93;42.21;98709.47;5093382;28;20444;-46
2023/10/16 08:47:25;;;;;;;16.42;2.40;;;;;;;17.33;41.09;98695.22;5093025;28;20032;-46
2023/10/16 08:49:56;;;;;;;11.77;3.03;;;;;;;17.67;40.23;98700.44;5092975;28;20031;-46
2023/10/16 08:52:23;;;;;;;14.25;2.60;;;;;;;17.83;39.55;98692.66;5091625;28;20379;-46
2023/10/16 08:57:28;;;;;;;22.23;3.50;;;;;;;17.73;40.02;98693.38;5092834;28;20032;-46
2023/10/16 08:59:57;;;;;;;21.05;3.33;;;;;;;17.98;40.05;98692.88;5091567;28;20111;-46
2023/10/16 09:02:26;;;;;;;13.13;2.90;;;;;;;18.17;39.49;98696.03;5092820;28;20047;-46
2023/10/16 09:04:55;;;;;;;12.35;2.45;;;;;;;18.03;39.14;98695.59;5091437;28;20020;-46
2023/10/16 09:07:24;;;;;;;20.88;5.50;;;;;;;18.09;39.49;98691.13;5091747;28;20042;-47
2023/10/16 09:09:53;;;;;;;23.05;17.95;;;;;;;18.40;39.58;98686.94;5091968;28;20024;-46
2023/10/16 09:12:37;;;;;;;21.63;7.35;;;;;;;18.72;38.83;98678.19;5092477;28;20024;-46
2023/10/16 09:15:08;;;;;;;8.57;3.10;;;;;;;19.02;38.06;98682.97;5092541;28;20105;-46
2023/10/16 09:17:37;;;;;;;8.70;2.85;;;;;;;18.93;38.16;98676.50;5092551;28;20371;-46
2023/10/16 09:20:19;;;;;;;14.02;2.55;;;;;;;18.83;38.26;98679.88;5090976;28;20068;-46
2023/10/16 09:22:48;;;;;;;18.83;3.50;;;;;;;18.79;38.26;98676.13;5091219;28;20689;-46
2023/10/16 09:25:18;;;;;;;16.45;3.08;;;;;;;18.69;38.57;98681.34;5092288;28;20019;-46
2023/10/16 09:27:45;;;;;;;18.98;2.72;;;;;;;18.68;38.32;98677.09;5092342;28;20077;-46
2023/10/16 09:30:17;;;;;;;33.55;4.32;;;;;;;18.83;38.31;98679.09;5092189;28;20030;-46
2023/10/16 09:32:44;;;;;;;28.75;3.15;;;;;;;18.95;38.10;98674.41;5092333;28;20060;-46
2023/10/16 09:35:14;;;;;;;6.75;2.10;;;;;;;19.11;37.73;98678.75;5092460;28;20397;-46
2023/10/16 09:37:40;;;;;;;13.90;2.85;;;;;;;19.43;37.33;98675.22;5090866;28;20115;-46
2023/10/16 09:40:58;;;;;;;46.45;4.75;;;;;;;19.62;37.07;98674.78;5092053;28;20114;-46
2023/10/16 09:43:06;;;;;;;8.77;2.22;;;;;;;19.82;36.59;98658.94;5088886;28;20074;-46
2023/10/16 09:45:33;;;;;;;30.55;6.05;;;;;;;20.04;36.29;98666.72;5090849;28;20060;-47
2023/10/16 09:48:07;;;;;;;16.05;2.85;;;;;;;20.25;35.99;98661.44;5091984;28;20155;-46
2023/10/16 09:50:38;;;;;;;30.30;3.77;;;;;;;20.54;35.95;98659.06;5092004;28;20035;-46
2023/10/16 09:53:07;;;;;;;31.75;4.30;;;;;;;20.78;35.57;98656.69;5090839;28;20055;-46
2023/10/16 09:55:44;;;;;;;16.85;2.92;;;;;;;20.75;35.10;98651.91;5090707;28;20126;-46
2023/10/16 09:58:11;;;;;;;19.70;3.22;;;;;;;20.65;35.00;98655.34;5092207;28;20389;-46
2023/10/16 10:00:51;;;;;;;15.82;3.15;;;;;;;20.85;35.03;98649.22;5091900;28;20024;-47
2023/10/16 10:03:19;;;;;;;12.45;2.42;;;;;;;21.06;34.76;98646.50;5090793;28;20089;-46
2023/10/16 10:05:55;;;;;;;6.57;1.95;;;;;;;21.09;34.29;98646.00;5092104;28;20028;-46
2023/10/16 10:09:44;;;;;;;13.80;4.38;;;;;;;21.22;34.71;98641.94;5091728;28;20032;-46
2023/10/16 10:11:45;;;;;;;15.85;3.60;;;;;;;21.69;34.10;98641.53;5086685;28;20527;-47
2023/10/16 10:16:57;;;;;;;16.67;4.90;;;;;;;22.23;33.50;98636.44;5091806;28;20107;-47
2023/10/16 10:19:36;;;;;;;18.60;3.95;;;;;;;22.34;33.07;98629.97;5090773;28;20502;-47
2023/10/16 10:22:26;;;;;;;10.48;3.67;;;;;;;22.56;32.82;98631.38;5095881;28;20036;-47
2023/10/16 10:25:14;;;;;;;17.15;2.78;;;;;;;22.97;32.12;98623.78;5095895;28;20054;-47
2023/10/16 10:27:43;;;;;;;7.03;2.10;;;;;;;22.90;31.75;98629.50;5095836;28;20028;-47
2023/10/16 10:30:27;;;;;;;11.93;3.13;;;;;;;22.59;32.74;98625.50;5095523;28;20024;-47
2023/10/16 10:33:00;;;;;;;8.32;2.33;;;;;;;22.90;32.52;98626.03;5094708;28;20039;-47
2023/10/16 10:35:38;;;;;;;12.77;2.65;;;;;;;23.41;31.57;98620.13;5095682;28;20027;-46
2023/10/16 10:38:17;;;;;;;10.52;2.42;;;;;;;23.86;31.02;98619.84;5095592;28;20638;-47
2023/10/16 10:41:12;;;;;;;10.23;2.08;;;;;;;24.65;30.51;98613.84;5095845;28;20566;-47
2023/10/16 10:43:46;;;;;;;17.83;2.97;;;;;;;25.07;29.48;98612.84;5095459;28;20035;-47
2023/10/16 10:46:21;;;;;;;9.93;2.20;;;;;;;24.74;29.26;98612.09;5094435;28;20405;-47
2023/10/16 10:48:46;;;;;;;14.95;1.92;;;;;;;24.06;30.13;98611.50;5095288;28;20393;-47
2023/10/16 10:51:15;;;;;;;16.38;3.63;;;;;;;23.84;30.71;98619.34;5093909;28;20043;-47
2023/10/16 10:53:58;;;;;;;14.35;1.90;;;;;;;23.86;30.53;98606.44;5093956;28;20444;-47
2023/10/16 10:56:48;;;;;;;33.92;4.60;;;;;;;23.83;31.00;98607.84;5095050;28;20016;-47
2023/10/16 10:59:39;;;;;;;11.90;2.25;;;;;;;23.84;30.77;98605.94;5095142;28;20020;-47
2023/10/16 11:04:44;;;;;;;10.95;2.60;;;;;;;23.41;31.54;98604.06;5095123;28;20028;-46
2023/10/16 11:07:29;;;;;;;29.23;3.92;;;;;;;23.67;31.42;98606.44;5093644;28;20081;-47
2023/10/16 11:09:57;;;;;;;14.27;3.22;;;;;;;23.92;31.10;98600.75;5094932;28;20107;-47
2023/10/16 11:12:29;;;;;;;8.43;1.92;;;;;;;24.23;30.68;98597.59;5093563;28;20505;-47
2023/10/16 11:14:56;;;;;;;29.67;5.82;;;;;;;25.14;29.71;98590.16;5095173;28;20074;-47
2023/10/16 11:17:36;;;;;;;23.08;5.22;;;;;;;25.71;28.81;98583.31;5094806;28;20024;-47
2023/10/16 11:20:36;;;;;;;20.92;5.10;;;;;;;25.96;28.19;98581.22;5094594;28;20044;-47
2023/10/16 11:22:57;;;;;;;23.38;4.55;;;;;;;26.34;27.91;98572.78;5093357;28;20054;-47
2023/10/16 11:25:28;;;;;;;7.40;2.35;;;;;;;26.11;27.95;98575.44;5093400;28;20032;-47
2023/10/16 11:28:07;;;;;;;15.82;3.92;;;;;;;25.67;28.26;98571.59;5094589;28;20024;-47
2023/10/16 11:30:38;;;;;;;16.25;3.83;;;;;;;25.93;28.10;98567.56;5094632;28;20024;-47
2023/10/16 11:33:06;;;;;;;52.20;5.95;;;;;;;25.85;28.52;98561.00;5093900;28;20113;-47
2023/10/16 11:35:34;;;;;;;44.60;4.45;;;;;;;25.81;28.65;98560.78;5094349;28;20023;-47
2023/10/16 11:38:04;;;;;;;34.22;4.47;;;;;;;26.01;28.61;98567.63;5094472;28;20027;-47
2023/10/16 11:40:50;;;;;;;43.20;5.55;;;;;;;26.34;27.93;98569.28;5093203;28;20028;-47
2023/10/16 11:43:19;;;;;;;22.80;4.25;;;;;;;26.34;27.60;98553.94;5094380;28;20024;-47
2023/10/16 11:45:56;;;;;;;13.23;3.53;;;;;;;25.81;28.20;98555.41;5094247;28;20034;-47
2023/10/16 11:50:53;;;;;;;59.38;13.73;;;;;;;25.39;28.98;98554.72;5094128;28;20036;-47
2023/10/16 11:53:23;;;;;;;21.15;4.63;;;;;;;25.16;29.29;98553.84;5094160;28;20020;-47
2023/10/16 11:55:52;;;;;;;16.55;2.90;;;;;;;25.23;29.15;98543.53;5094304;28;20063;-47
2023/10/16 11:58:18;;;;;;;24.98;5.05;;;;;;;25.34;29.22;98540.63;5094041;28;20020;-47
2023/10/16 12:00:56;;;;;;;40.05;6.82;;;;;;;25.68;28.66;98534.78;5094216;28;20028;-47
2023/10/16 12:03:26;;;;;;;34.05;5.20;;;;;;;25.85;28.62;98526.81;5093994;28;20028;-47
2023/10/16 12:05:52;;;;;;;33.33;7.10;;;;;;;25.79;28.44;98527.25;5093797;28;20505;-47
2023/10/16 12:08:21;;;;;;;25.52;7.15;;;;;;;25.52;28.71;98526.25;5093833;28;20056;-47
2023/10/16 12:10:50;;;;;;;34.97;7.85;;;;;;;25.46;28.79;98514.03;5093815;28;20055;-47
2023/10/16 12:13:16;;;;;;;47.90;8.23;;;;;;;25.40;28.85;98517.94;5093718;28;20027;-47
2023/10/16 12:15:43;;;;;;;33.60;11.65;;;;;;;24.90;29.50;98515.97;5092344;28;20047;-47
2023/10/16 12:18:12;;;;;;;36.40;9.27;;;;;;;24.59;29.95;98511.19;5093597;28;20026;-47
2023/10/16 12:20:38;;;;;;;29.13;8.25;;;;;;;24.52;30.14;98508.88;5093626;28;20486;-47
2023/10/16 12:23:05;;;;;;;26.15;3.67;;;;;;;24.58;30.09;98503.44;5093510;28;20028;-47
2023/10/16 12:25:32;;;;;;;13.70;2.70;;;;;;;24.26;30.36;98507.72;5093469;28;20065;-47
2023/10/16 12:27:58;;;;;;;19.10;5.78;;;;;;;23.89;30.80;98510.19;5093441;28;20047;-47
2023/10/16 12:30:27;;;;;;;17.05;4.35;;;;;;;23.43;31.08;98500.13;5075236;28;20062;-47
2023/10/16 12:32:56;;;;;;;16.55;2.88;;;;;;;22.97;31.88;98506.03;5093320;28;20634;-47
2023/10/16 12:35:22;;;;;;;15.90;2.95;;;;;;;22.86;32.17;98499.22;5093341;28;20115;-47
2023/10/16 12:37:55;;;;;;;4.45;1.67;;;;;;;23.07;32.29;98502.47;5093268;28;20107;-47
2023/10/16 12:40:24;;;;;;;45.50;12.60;;;;;;;23.38;32.44;98492.16;5092161;28;20032;-47
2023/10/16 12:42:53;;;;;;;32.80;6.72;;;;;;;23.64;32.07;98495.28;5092453;28;20036;-47
2023/10/16 12:45:23;;;;;;;84.57;19.48;;;;;;;23.55;31.94;98494.31;5092876;28;20024;-47
2023/10/16 12:47:52;;;;;;;66.75;17.17;;;;;;;23.40;32.01;98492.66;5091731;28;20020;-47
2023/10/16 12:50:29;;;;;;;59.53;16.70;;;;;;;23.32;32.44;98480.72;5093208;28;20477;-47
2023/10/16 12:52:57;;;;;;;54.63;13.30;;;;;;;23.38;32.56;98483.31;5093077;28;20028;-47
2023/10/16 12:55:23;;;;;;;55.35;12.02;;;;;;;23.47;32.52;98477.03;5092891;28;20028;-47
2023/10/16 12:57:50;;;;;;;33.17;8.88;;;;;;;23.52;32.65;98476.97;5092769;28;20024;-47
2023/10/16 13:00:20;;;;;;;34.72;9.43;;;;;;;23.73;32.50;98463.25;5074691;28;20064;-47
2023/10/16 13:02:51;;;;;;;31.85;7.90;;;;;;;23.91;32.05;98464.34;5093204;28;20036;-47
2023/10/16 13:05:26;;;;;;;26.40;6.32;;;;;;;23.71;32.15;98462.75;5089331;28;20386;-46
2023/10/16 13:07:52;;;;;;;6.57;1.80;;;;;;;23.71;31.84;98454.72;5089305;28;20032;-46
2023/10/16 13:10:25;;;;;;;16.85;4.32;;;;;;;23.79;32.25;98456.75;5071391;28;20020;-45
2023/10/16 13:12:51;;;;;;;27.33;5.85;;;;;;;24.10;31.88;98457.00;5089278;28;20477;-46
2023/10/16 13:15:30;;;;;;;11.13;5.18;;;;;;;24.15;31.58;98450.78;5089417;28;20192;-46
2023/10/16 13:17:56;;;;;;;14.43;4.55;;;;;;;23.99;31.99;98450.25;5072956;28;20071;-46
2023/10/16 13:20:28;;;;;;;4.63;1.75;;;;;;;23.43;32.19;98449.22;5070968;28;20401;-46
2023/10/16 13:22:57;;;;;;;5.60;1.20;;;;;;;22.74;32.70;98446.91;5071247;28;20064;-46
2023/10/16 13:25:34;;;;;;;7.28;2.47;;;;;;;22.05;34.27;98442.78;5071058;28;20047;-46
2023/10/16 13:28:00;;;;;;;7.97;2.42;;;;;;;21.74;35.01;98443.84;5070776;28;20457;-46
2023/10/16 13:30:26;;;;;;;7.18;1.83;;;;;;;21.71;35.23;98446.25;5070945;28;20031;-46
2023/10/16 13:32:54;;;;;;;4.13;1.60;;;;;;;21.60;34.95;98434.88;5089041;28;20032;-46
2023/10/16 13:35:20;;;;;;;6.03;1.50;;;;;;;21.22;35.81;98439.88;5088763;28;20020;-46
2023/10/16 13:37:50;;;;;;;3.72;1.50;;;;;;;20.66;37.24;98427.63;5088677;28;20548;-46
2023/10/16 13:40:21;;;;;;;4.07;1.50;;;;;;;20.10;38.24;98433.06;5088963;28;20078;-46
2023/10/16 13:42:51;;;;;;;1.92;1.30;;;;;;;19.65;39.18;98443.44;5088648;28;20063;-45